Weather at Double Eagle II Airport

Public forecast

Using degrees Fahrenheit for public forecast. Weather courtesy of forecast.io.

Current aviation weather report (METAR) for Double Eagle II Airport

Retrieved 2021/06/23 11:15 UTC (19 minutes ago):

KAEG 231115Z AUTO 09006KT 10SM CLR 19/M03 A3012 RMK AO2 T01891028

Aviation forecast (TAF) for Double Eagle II Airport

Retrieved 2021/06/23 06:30 UTC (5 hours ago):

TAF KAEG 230527Z 2306/2406 33008KT P6SM SCT120 BKN200 FM232000 31016G26KT P6SM BKN120 FM240200 32012KT P6SM BKN120